Beaumont, TX (77701)

8:12 PM CDT on June 27, 2017 (GMT -0500)
BeaumontEOC | | Change Station
Active Advisory: Special Statement

Elev 33 ft 30.08 °N, 94.10 °W | Updated 4 seconds ago

Mostly Cloudy
Mostly Cloudy
81.4 °F
Feels Like 89 °F
N
5.5
Wind Variable Wind from NW
Gusts 5.5 mph

Today
High -- | Low -- °F
--% Chance of Precip.
Yesterday
High -- | Low -- °F
Precip. -- in
Pressure 29.97 in
Visibility 10.0 miles
Clouds Scattered Clouds 1900 ft
Heat Index 89 °F
Dew Point 78 °F
Humidity 89%
Rainfall 0.02 in
Snow Depth Not available.
6:17 AM 8:21 PM
Waxing Crescent, 20% visible
METAR KBPT 280053Z 11007KT 10SM SCT019 27/23 A2997 RMK AO2 SLP148 T02720228 $
Pressure 29.97 in
Visibility 10.0 miles
Clouds Scattered Clouds 1900 ft
Heat Index 89 °F
Dew Point 78 °F
Humidity 89%
Rainfall 0.02 in
Snow Depth Not available.
6:17 AM 8:21 PM
Waxing Crescent, 20% visible
METAR KBPT 280053Z 11007KT 10SM SCT019 27/23 A2997 RMK AO2 SLP148 T02720228 $

Get Your Daily Forecast Email!

Thanks for signing up!

Be on the lookout for a verification email in your inbox.

You'll start receiving severe weather alerts in your inbox..

×

10-Day Weather Forecast

Almanac

Astronomy

Jun. 27, 2017 Rise Set
Actual Time
Civil Twilight
Nautical Twilight
Astronomical Twilight
Moon
Length of Visible Light
Length of Day
Tomorrow will be .
, % of the Moon is Illuminated

Today's Extremes

State Highs State Lows

Community

WunderPhotos

Category 6

Welcome to Category 6. This is the collective home for Weather Underground's featured writeups by Dr. Jeff Masters (right), Bob Henson (left), Chris Burt, and other regular contributors.

Nearby

Air Quality

  Air Quality AQ Index Pollutant
Not available.

Snow Depth

Station Depth Elevation

Earthquake Activity

City Distance Mag. Time & Date
Minimum magnitude displayed is 2.5.

Coastal Water Temperatures

Place Temperature

Stations

Nearby Weather Stations

Station Location Temp. Windchill Dew Point Humidity Wind Precip. Elev Updated Type
                   

Watches & Warnings

Special Statement
Issued: 12:29 PM CDT Jun. 27, 2017 – National Weather Service

... Tropical funnel clouds possible...

A very moist and unstable tropical airmass is in place across the
area. Meanwhile... the vertical wind profile over the area is
light and variable. These conditions are favorable for the
development of tropical funnel clouds... especially where rain
cooled boundaries... known as outflow boundaries... and the
seabreeze collide.

These tropical funnel clouds are usually short-lived and do not
reach the ground. If The Funnel cloud becomes more severe and
reaches the ground... minor damage may occur... and a Tornado
Warning will likely be issued.

Stay tuned for later statements and updates on this weather
situation.


66